Pagina principală
METAR-TAF:

METAR-TAF

Aeroporturi :

Port Vila, Efate, Vanuatu

Latitudine: 17-42S, longitudine: 168-18E, elevație: 20 m

Observații meteo curente

Raportul a fost făcut în urmă cu 34 de minute, la 15:00 UTC
Vânt 3 kt de la Est
Temperatură 24°C
Umiditate 94%
Presiune 1004 hPa
Vizibilitate de 10 km sau mai mult
Nori împrăștiați la o înălțime de 2000 picior

METAR: NVVV 181500Z 10003KT 9999 SCT020 24/23 Q1004 RESH

Ora: 02:34 (15:34 UTC)

Prognoză

Raportul a fost făcut în urmă cu 5 ore și 34 de minute, la 10:00 UTC
Prognoză valabilă de la 18 ora 12 UTC la 19 ora 12 UTC
Vânt 2 kt din direcții variabile
Vizibilitate de 10 km sau mai mult
Nori fragmentați la o înălțime de 2000 picior
Probabilitate 40%
între IN și TE UTC
Vizibilitate: 9000 m
Nori fragmentați la o înălțime de 1800 picior
averse de ploaie slabă

TAF: NVVV 181000Z 1812/1912 VRB02KT 9999 BKN020 PROB40 INTER 1812/1818 9000 -SHRA BKN018

Observații și prognoze meteo pentru peste 4.000 de aeroporturi (rapoarte METAR și TAF).

Stațiile disponibile sunt reprezentate pe hartă prin puncte galbene și roșii.

Țineți indicatorul mouse-ului pe punctul dorit pentru a vedea denumirea stației.

Apoi, faceți clic pentru a vedea observațiile și prognozele meteorologice.

Pentru a schimba harta: Pentru mărire, faceți clic pe butoanele verzi cu cruce neagră; pentru micșorare, pe butonul verde cu o liniuță; pentru hărți învecinate, pe săgețile verzi.


METAR-TAF: